sensor_id;sensor_type;location;lat;lon;timestamp;P1;durP1;ratioP1;P2;durP2;ratioP2
19291;SDS011;9779;51.756;7.450;2023-09-08T00:01:15;4.80;;;4.50;;
19291;SDS011;9779;51.756;7.450;2023-09-08T00:03:40;4.40;;;4.10;;
19291;SDS011;9779;51.756;7.450;2023-09-08T00:06:06;4.77;;;4.47;;
19291;SDS011;9779;51.756;7.450;2023-09-08T00:08:32;4.50;;;4.10;;
19291;SDS011;9779;51.756;7.450;2023-09-08T00:10:57;8.17;;;4.77;;
19291;SDS011;9779;51.756;7.450;2023-09-08T00:13:23;5.20;;;4.83;;
19291;SDS011;9779;51.756;7.450;2023-09-08T00:15:48;5.20;;;4.80;;
19291;SDS011;9779;51.756;7.450;2023-09-08T00:18:14;4.90;;;4.47;;
19291;SDS011;9779;51.756;7.450;2023-09-08T00:20:40;6.33;;;4.67;;
19291;SDS011;9779;51.756;7.450;2023-09-08T00:23:07;5.50;;;5.00;;
19291;SDS011;9779;51.756;7.450;2023-09-08T00:25:33;5.23;;;4.63;;
19291;SDS011;9779;51.756;7.450;2023-09-08T00:27:59;7.70;;;4.27;;
19291;SDS011;9779;51.756;7.450;2023-09-08T00:30:25;4.40;;;4.00;;
19291;SDS011;9779;51.756;7.450;2023-09-08T00:32:51;5.90;;;5.40;;
19291;SDS011;9779;51.756;7.450;2023-09-08T00:35:16;4.83;;;4.50;;
19291;SDS011;9779;51.756;7.450;2023-09-08T00:37:42;4.53;;;4.23;;
19291;SDS011;9779;51.756;7.450;2023-09-08T00:40:09;6.93;;;4.43;;
19291;SDS011;9779;51.756;7.450;2023-09-08T00:42:35;5.37;;;4.87;;
19291;SDS011;9779;51.756;7.450;2023-09-08T00:45:01;6.63;;;4.70;;
19291;SDS011;9779;51.756;7.450;2023-09-08T00:47:26;4.90;;;4.60;;
19291;SDS011;9779;51.756;7.450;2023-09-08T00:49:53;4.87;;;4.47;;
19291;SDS011;9779;51.756;7.450;2023-09-08T00:52:18;5.23;;;4.73;;
19291;SDS011;9779;51.756;7.450;2023-09-08T00:54:44;5.17;;;4.70;;
19291;SDS011;9779;51.756;7.450;2023-09-08T00:57:10;4.73;;;4.50;;
19291;SDS011;9779;51.756;7.450;2023-09-08T00:59:35;4.97;;;4.67;;
19291;SDS011;9779;51.756;7.450;2023-09-08T01:02:02;5.67;;;5.00;;
19291;SDS011;9779;51.756;7.450;2023-09-08T01:04:28;5.00;;;4.60;;
19291;SDS011;9779;51.756;7.450;2023-09-08T01:06:55;4.77;;;4.47;;
19291;SDS011;9779;51.756;7.450;2023-09-08T01:09:21;4.70;;;4.40;;
19291;SDS011;9779;51.756;7.450;2023-09-08T01:11:49;4.70;;;4.30;;
19291;SDS011;9779;51.756;7.450;2023-09-08T01:14:17;5.90;;;4.80;;
19291;SDS011;9779;51.756;7.450;2023-09-08T01:16:44;4.80;;;4.50;;
19291;SDS011;9779;51.756;7.450;2023-09-08T01:19:11;5.60;;;5.20;;
19291;SDS011;9779;51.756;7.450;2023-09-08T01:26:54;8.40;;;5.20;;
19291;SDS011;9779;51.756;7.450;2023-09-08T01:29:20;5.30;;;4.90;;
19291;SDS011;9779;51.756;7.450;2023-09-08T01:31:49;5.70;;;5.07;;
19291;SDS011;9779;51.756;7.450;2023-09-08T01:34:15;6.40;;;5.37;;
19291;SDS011;9779;51.756;7.450;2023-09-08T01:36:42;8.30;;;5.37;;
19291;SDS011;9779;51.756;7.450;2023-09-08T01:39:07;5.90;;;5.40;;
19291;SDS011;9779;51.756;7.450;2023-09-08T01:41:33;5.33;;;4.83;;
19291;SDS011;9779;51.756;7.450;2023-09-08T01:44:01;5.23;;;4.83;;
19291;SDS011;9779;51.756;7.450;2023-09-08T01:46:32;5.73;;;5.27;;
19291;SDS011;9779;51.756;7.450;2023-09-08T01:48:59;5.60;;;5.13;;
19291;SDS011;9779;51.756;7.450;2023-09-08T01:51:24;5.83;;;5.53;;
19291;SDS011;9779;51.756;7.450;2023-09-08T01:53:50;6.27;;;5.90;;
19291;SDS011;9779;51.756;7.450;2023-09-08T01:56:16;6.30;;;5.70;;
19291;SDS011;9779;51.756;7.450;2023-09-08T01:58:41;6.57;;;5.70;;
19291;SDS011;9779;51.756;7.450;2023-09-08T02:01:07;7.70;;;5.37;;
19291;SDS011;9779;51.756;7.450;2023-09-08T02:03:32;5.93;;;5.53;;
19291;SDS011;9779;51.756;7.450;2023-09-08T02:05:58;9.93;;;6.43;;
19291;SDS011;9779;51.756;7.450;2023-09-08T02:08:23;5.33;;;4.93;;
19291;SDS011;9779;51.756;7.450;2023-09-08T02:10:49;4.70;;;4.40;;
19291;SDS011;9779;51.756;7.450;2023-09-08T02:13:15;5.10;;;4.80;;
19291;SDS011;9779;51.756;7.450;2023-09-08T02:15:40;6.53;;;5.17;;
19291;SDS011;9779;51.756;7.450;2023-09-08T02:18:06;4.93;;;4.63;;
19291;SDS011;9779;51.756;7.450;2023-09-08T02:20:32;5.20;;;4.90;;
19291;SDS011;9779;51.756;7.450;2023-09-08T02:23:03;5.60;;;5.20;;
19291;SDS011;9779;51.756;7.450;2023-09-08T02:25:30;5.20;;;4.80;;
19291;SDS011;9779;51.756;7.450;2023-09-08T02:27:56;5.20;;;4.80;;
19291;SDS011;9779;51.756;7.450;2023-09-08T02:30:21;5.50;;;5.10;;
19291;SDS011;9779;51.756;7.450;2023-09-08T02:32:47;4.57;;;4.37;;
19291;SDS011;9779;51.756;7.450;2023-09-08T02:35:13;6.20;;;4.83;;
19291;SDS011;9779;51.756;7.450;2023-09-08T02:37:39;4.40;;;4.00;;
19291;SDS011;9779;51.756;7.450;2023-09-08T02:40:05;10.23;;;4.97;;
19291;SDS011;9779;51.756;7.450;2023-09-08T02:42:31;5.23;;;4.80;;
19291;SDS011;9779;51.756;7.450;2023-09-08T02:44:57;7.50;;;4.53;;
19291;SDS011;9779;51.756;7.450;2023-09-08T02:47:23;5.23;;;4.83;;
19291;SDS011;9779;51.756;7.450;2023-09-08T02:49:48;5.63;;;5.13;;
19291;SDS011;9779;51.756;7.450;2023-09-08T02:52:14;5.07;;;4.77;;
19291;SDS011;9779;51.756;7.450;2023-09-08T02:54:40;5.87;;;5.47;;
19291;SDS011;9779;51.756;7.450;2023-09-08T02:57:05;6.23;;;5.77;;
19291;SDS011;9779;51.756;7.450;2023-09-08T02:59:31;6.20;;;5.30;;
19291;SDS011;9779;51.756;7.450;2023-09-08T03:01:57;5.53;;;5.23;;
19291;SDS011;9779;51.756;7.450;2023-09-08T03:04:24;5.93;;;5.57;;
19291;SDS011;9779;51.756;7.450;2023-09-08T03:06:49;6.10;;;5.53;;
19291;SDS011;9779;51.756;7.450;2023-09-08T03:09:15;5.93;;;5.37;;
19291;SDS011;9779;51.756;7.450;2023-09-08T03:11:40;6.60;;;6.20;;
19291;SDS011;9779;51.756;7.450;2023-09-08T03:14:06;7.80;;;6.40;;
19291;SDS011;9779;51.756;7.450;2023-09-08T03:16:32;7.37;;;6.87;;
19291;SDS011;9779;51.756;7.450;2023-09-08T03:18:57;6.23;;;5.73;;
19291;SDS011;9779;51.756;7.450;2023-09-08T03:21:23;15.77;;;5.90;;
19291;SDS011;9779;51.756;7.450;2023-09-08T03:23:49;5.70;;;5.40;;
19291;SDS011;9779;51.756;7.450;2023-09-08T03:26:15;6.37;;;5.87;;
19291;SDS011;9779;51.756;7.450;2023-09-08T03:28:41;6.97;;;6.47;;
19291;SDS011;9779;51.756;7.450;2023-09-08T03:31:07;5.53;;;5.23;;
19291;SDS011;9779;51.756;7.450;2023-09-08T03:33:33;6.80;;;6.33;;
19291;SDS011;9779;51.756;7.450;2023-09-08T03:35:59;6.50;;;6.00;;
19291;SDS011;9779;51.756;7.450;2023-09-08T03:38:25;7.53;;;6.60;;
19291;SDS011;9779;51.756;7.450;2023-09-08T03:40:51;6.03;;;5.50;;
19291;SDS011;9779;51.756;7.450;2023-09-08T03:43:17;5.63;;;5.33;;
19291;SDS011;9779;51.756;7.450;2023-09-08T03:45:42;6.13;;;5.73;;
19291;SDS011;9779;51.756;7.450;2023-09-08T03:48:08;5.73;;;5.43;;
19291;SDS011;9779;51.756;7.450;2023-09-08T03:50:34;5.33;;;5.03;;
19291;SDS011;9779;51.756;7.450;2023-09-08T03:53:00;6.57;;;5.97;;
19291;SDS011;9779;51.756;7.450;2023-09-08T03:55:26;7.27;;;6.57;;
19291;SDS011;9779;51.756;7.450;2023-09-08T03:57:52;6.00;;;5.57;;
19291;SDS011;9779;51.756;7.450;2023-09-08T04:00:17;6.30;;;5.77;;
19291;SDS011;9779;51.756;7.450;2023-09-08T04:02:44;7.73;;;6.03;;
19291;SDS011;9779;51.756;7.450;2023-09-08T04:05:10;6.80;;;6.20;;
19291;SDS011;9779;51.756;7.450;2023-09-08T04:07:36;6.23;;;5.73;;
19291;SDS011;9779;51.756;7.450;2023-09-08T04:10:04;6.23;;;5.80;;
19291;SDS011;9779;51.756;7.450;2023-09-08T04:12:30;6.70;;;6.30;;
19291;SDS011;9779;51.756;7.450;2023-09-08T04:14:55;6.67;;;6.17;;
19291;SDS011;9779;51.756;7.450;2023-09-08T04:17:21;6.43;;;5.93;;
19291;SDS011;9779;51.756;7.450;2023-09-08T04:19:47;7.90;;;6.27;;
19291;SDS011;9779;51.756;7.450;2023-09-08T04:22:12;7.53;;;6.93;;
19291;SDS011;9779;51.756;7.450;2023-09-08T04:24:38;7.83;;;7.33;;
19291;SDS011;9779;51.756;7.450;2023-09-08T04:27:04;9.37;;;8.57;;
19291;SDS011;9779;51.756;7.450;2023-09-08T04:29:29;9.93;;;9.17;;
19291;SDS011;9779;51.756;7.450;2023-09-08T04:31:55;8.07;;;7.37;;
19291;SDS011;9779;51.756;7.450;2023-09-08T04:34:21;7.37;;;6.53;;
19291;SDS011;9779;51.756;7.450;2023-09-08T04:36:46;7.63;;;6.87;;
19291;SDS011;9779;51.756;7.450;2023-09-08T04:39:12;7.50;;;6.67;;
19291;SDS011;9779;51.756;7.450;2023-09-08T04:41:40;7.00;;;6.50;;
19291;SDS011;9779;51.756;7.450;2023-09-08T04:44:05;7.87;;;7.33;;
19291;SDS011;9779;51.756;7.450;2023-09-08T04:46:31;8.30;;;6.53;;
19291;SDS011;9779;51.756;7.450;2023-09-08T04:48:57;6.97;;;6.47;;
19291;SDS011;9779;51.756;7.450;2023-09-08T04:51:22;5.80;;;5.50;;
19291;SDS011;9779;51.756;7.450;2023-09-08T04:53:48;7.33;;;6.63;;
19291;SDS011;9779;51.756;7.450;2023-09-08T04:56:16;9.10;;;7.63;;
19291;SDS011;9779;51.756;7.450;2023-09-08T04:58:41;6.90;;;6.43;;
19291;SDS011;9779;51.756;7.450;2023-09-08T05:01:07;6.80;;;6.10;;
19291;SDS011;9779;51.756;7.450;2023-09-08T05:03:32;6.50;;;6.07;;
19291;SDS011;9779;51.756;7.450;2023-09-08T05:05:58;7.10;;;6.60;;
19291;SDS011;9779;51.756;7.450;2023-09-08T05:08:24;5.77;;;5.43;;
19291;SDS011;9779;51.756;7.450;2023-09-08T05:10:49;6.63;;;6.23;;
19291;SDS011;9779;51.756;7.450;2023-09-08T05:13:16;6.80;;;6.20;;
19291;SDS011;9779;51.756;7.450;2023-09-08T05:15:42;6.60;;;6.20;;
19291;SDS011;9779;51.756;7.450;2023-09-08T05:18:09;6.33;;;5.67;;
19291;SDS011;9779;51.756;7.450;2023-09-08T05:20:34;7.20;;;6.13;;
19291;SDS011;9779;51.756;7.450;2023-09-08T05:23:00;7.23;;;6.17;;
19291;SDS011;9779;51.756;7.450;2023-09-08T05:25:25;13.20;;;7.63;;
19291;SDS011;9779;51.756;7.450;2023-09-08T05:27:51;7.43;;;6.93;;
19291;SDS011;9779;51.756;7.450;2023-09-08T05:30:17;7.20;;;6.60;;
19291;SDS011;9779;51.756;7.450;2023-09-08T05:32:42;6.80;;;6.37;;
19291;SDS011;9779;51.756;7.450;2023-09-08T05:35:08;10.90;;;9.83;;
19291;SDS011;9779;51.756;7.450;2023-09-08T05:37:34;10.93;;;9.93;;
19291;SDS011;9779;51.756;7.450;2023-09-08T05:40:00;7.60;;;7.13;;
19291;SDS011;9779;51.756;7.450;2023-09-08T05:42:26;7.90;;;7.40;;
19291;SDS011;9779;51.756;7.450;2023-09-08T05:44:51;7.40;;;6.90;;
19291;SDS011;9779;51.756;7.450;2023-09-08T05:47:19;10.37;;;9.30;;
19291;SDS011;9779;51.756;7.450;2023-09-08T05:49:45;11.03;;;8.03;;
19291;SDS011;9779;51.756;7.450;2023-09-08T05:52:10;8.80;;;8.00;;
19291;SDS011;9779;51.756;7.450;2023-09-08T05:54:36;7.37;;;6.97;;
19291;SDS011;9779;51.756;7.450;2023-09-08T05:57:02;7.93;;;7.33;;
19291;SDS011;9779;51.756;7.450;2023-09-08T05:59:27;9.90;;;6.77;;
19291;SDS011;9779;51.756;7.450;2023-09-08T06:01:53;7.83;;;7.13;;
19291;SDS011;9779;51.756;7.450;2023-09-08T06:04:19;8.87;;;6.97;;
19291;SDS011;9779;51.756;7.450;2023-09-08T06:06:44;9.30;;;7.40;;
19291;SDS011;9779;51.756;7.450;2023-09-08T06:09:10;7.30;;;6.57;;
19291;SDS011;9779;51.756;7.450;2023-09-08T06:11:37;6.03;;;5.53;;
19291;SDS011;9779;51.756;7.450;2023-09-08T06:14:02;6.73;;;6.03;;
19291;SDS011;9779;51.756;7.450;2023-09-08T06:16:28;7.60;;;7.10;;
19291;SDS011;9779;51.756;7.450;2023-09-08T06:18:54;7.57;;;6.77;;
19291;SDS011;9779;51.756;7.450;2023-09-08T06:21:19;11.73;;;7.43;;
19291;SDS011;9779;51.756;7.450;2023-09-08T06:23:45;6.97;;;6.37;;
19291;SDS011;9779;51.756;7.450;2023-09-08T06:26:10;6.53;;;5.67;;
19291;SDS011;9779;51.756;7.450;2023-09-08T06:28:37;5.13;;;4.67;;
19291;SDS011;9779;51.756;7.450;2023-09-08T06:31:04;5.73;;;4.57;;
19291;SDS011;9779;51.756;7.450;2023-09-08T06:33:30;6.37;;;5.63;;
19291;SDS011;9779;51.756;7.450;2023-09-08T06:35:55;6.13;;;5.73;;
19291;SDS011;9779;51.756;7.450;2023-09-08T06:38:21;9.10;;;6.43;;
19291;SDS011;9779;51.756;7.450;2023-09-08T06:40:46;6.93;;;5.53;;
19291;SDS011;9779;51.756;7.450;2023-09-08T06:43:13;6.83;;;6.20;;
19291;SDS011;9779;51.756;7.450;2023-09-08T06:45:38;8.33;;;6.97;;
19291;SDS011;9779;51.756;7.450;2023-09-08T06:48:07;7.50;;;6.70;;
19291;SDS011;9779;51.756;7.450;2023-09-08T06:50:33;6.53;;;5.97;;
19291;SDS011;9779;51.756;7.450;2023-09-08T06:53:01;8.30;;;7.70;;
19291;SDS011;9779;51.756;7.450;2023-09-08T06:55:26;6.67;;;5.93;;
19291;SDS011;9779;51.756;7.450;2023-09-08T06:57:52;5.93;;;5.53;;
19291;SDS011;9779;51.756;7.450;2023-09-08T07:00:17;6.13;;;5.60;;
19291;SDS011;9779;51.756;7.450;2023-09-08T07:02:45;5.63;;;5.03;;
19291;SDS011;9779;51.756;7.450;2023-09-08T07:05:11;8.67;;;6.17;;
19291;SDS011;9779;51.756;7.450;2023-09-08T07:07:36;6.07;;;5.63;;
19291;SDS011;9779;51.756;7.450;2023-09-08T07:10:03;5.47;;;5.17;;
19291;SDS011;9779;51.756;7.450;2023-09-08T07:12:29;5.93;;;5.50;;
19291;SDS011;9779;51.756;7.450;2023-09-08T07:14:55;5.67;;;5.17;;
19291;SDS011;9779;51.756;7.450;2023-09-08T07:17:21;5.00;;;4.60;;
19291;SDS011;9779;51.756;7.450;2023-09-08T07:19:48;5.40;;;4.87;;
19291;SDS011;9779;51.756;7.450;2023-09-08T07:22:14;6.10;;;4.93;;
19291;SDS011;9779;51.756;7.450;2023-09-08T07:24:40;11.00;;;5.23;;
19291;SDS011;9779;51.756;7.450;2023-09-08T07:27:06;5.97;;;5.37;;
19291;SDS011;9779;51.756;7.450;2023-09-08T07:29:32;10.00;;;5.40;;
19291;SDS011;9779;51.756;7.450;2023-09-08T07:31:57;10.67;;;7.97;;
19291;SDS011;9779;51.756;7.450;2023-09-08T07:34:23;14.70;;;12.30;;
19291;SDS011;9779;51.756;7.450;2023-09-08T07:36:51;9.10;;;6.00;;
19291;SDS011;9779;51.756;7.450;2023-09-08T07:39:16;6.77;;;5.40;;
19291;SDS011;9779;51.756;7.450;2023-09-08T07:41:42;5.33;;;4.70;;
19291;SDS011;9779;51.756;7.450;2023-09-08T07:44:08;7.97;;;5.40;;
19291;SDS011;9779;51.756;7.450;2023-09-08T07:46:33;5.13;;;4.73;;
19291;SDS011;9779;51.756;7.450;2023-09-08T07:48:59;5.20;;;4.90;;
19291;SDS011;9779;51.756;7.450;2023-09-08T07:51:25;4.37;;;3.63;;
19291;SDS011;9779;51.756;7.450;2023-09-08T07:53:52;4.97;;;4.67;;
19291;SDS011;9779;51.756;7.450;2023-09-08T07:56:18;5.37;;;4.07;;
19291;SDS011;9779;51.756;7.450;2023-09-08T07:58:44;5.37;;;4.90;;
19291;SDS011;9779;51.756;7.450;2023-09-08T08:01:10;9.53;;;4.80;;
19291;SDS011;9779;51.756;7.450;2023-09-08T08:03:37;6.87;;;4.33;;
19291;SDS011;9779;51.756;7.450;2023-09-08T08:06:03;6.47;;;5.27;;
19291;SDS011;9779;51.756;7.450;2023-09-08T08:08:28;4.83;;;4.00;;
19291;SDS011;9779;51.756;7.450;2023-09-08T08:10:55;4.40;;;4.00;;
19291;SDS011;9779;51.756;7.450;2023-09-08T08:13:21;4.30;;;3.73;;
19291;SDS011;9779;51.756;7.450;2023-09-08T08:15:46;7.20;;;4.18;;
19291;SDS011;9779;51.756;7.450;2023-09-08T08:18:12;5.97;;;4.40;;
19291;SDS011;9779;51.756;7.450;2023-09-08T08:20:38;7.90;;;3.75;;
19291;SDS011;9779;51.756;7.450;2023-09-08T08:23:04;4.10;;;3.80;;
19291;SDS011;9779;51.756;7.450;2023-09-08T08:25:31;4.15;;;3.35;;
19291;SDS011;9779;51.756;7.450;2023-09-08T08:27:57;4.70;;;3.85;;
19291;SDS011;9779;51.756;7.450;2023-09-08T08:30:25;3.65;;;3.42;;
19291;SDS011;9779;51.756;7.450;2023-09-08T08:32:51;5.72;;;3.85;;
19291;SDS011;9779;51.756;7.450;2023-09-08T08:35:18;3.60;;;3.30;;
19291;SDS011;9779;51.756;7.450;2023-09-08T08:37:46;3.35;;;3.13;;
19291;SDS011;9779;51.756;7.450;2023-09-08T08:40:12;12.23;;;3.78;;
19291;SDS011;9779;51.756;7.450;2023-09-08T08:42:38;6.95;;;3.40;;
19291;SDS011;9779;51.756;7.450;2023-09-08T08:45:04;3.92;;;3.63;;
19291;SDS011;9779;51.756;7.450;2023-09-08T08:47:30;4.70;;;4.30;;
19291;SDS011;9779;51.756;7.450;2023-09-08T08:49:57;4.38;;;4.07;;
19291;SDS011;9779;51.756;7.450;2023-09-08T08:52:26;4.68;;;2.90;;
19291;SDS011;9779;51.756;7.450;2023-09-08T08:54:52;3.00;;;2.80;;
19291;SDS011;9779;51.756;7.450;2023-09-08T08:57:19;3.15;;;2.90;;
19291;SDS011;9779;51.756;7.450;2023-09-08T08:59:46;6.60;;;2.35;;
19291;SDS011;9779;51.756;7.450;2023-09-08T09:02:14;5.15;;;3.17;;
19291;SDS011;9779;51.756;7.450;2023-09-08T09:04:40;4.65;;;2.80;;
19291;SDS011;9779;51.756;7.450;2023-09-08T09:07:06;6.50;;;2.90;;
19291;SDS011;9779;51.756;7.450;2023-09-08T09:09:32;2.95;;;2.67;;
19291;SDS011;9779;51.756;7.450;2023-09-08T09:11:58;3.40;;;3.10;;
19291;SDS011;9779;51.756;7.450;2023-09-08T09:14:24;3.38;;;3.08;;
19291;SDS011;9779;51.756;7.450;2023-09-08T09:16:52;3.38;;;3.00;;
19291;SDS011;9779;51.756;7.450;2023-09-08T09:19:22;2.67;;;2.47;;
19291;SDS011;9779;51.756;7.450;2023-09-08T09:21:52;2.60;;;2.50;;
19291;SDS011;9779;51.756;7.450;2023-09-08T09:24:35;2.50;;;2.30;;
19291;SDS011;9779;51.756;7.450;2023-09-08T09:27:05;3.92;;;2.63;;
19291;SDS011;9779;51.756;7.450;2023-09-08T09:29:31;7.25;;;2.40;;
19291;SDS011;9779;51.756;7.450;2023-09-08T09:32:02;2.85;;;2.65;;
19291;SDS011;9779;51.756;7.450;2023-09-08T09:34:29;4.28;;;2.80;;
19291;SDS011;9779;51.756;7.450;2023-09-08T09:36:55;2.63;;;2.45;;
19291;SDS011;9779;51.756;7.450;2023-09-08T09:39:21;6.20;;;2.83;;
19291;SDS011;9779;51.756;7.450;2023-09-08T09:41:54;5.53;;;2.67;;
19291;SDS011;9779;51.756;7.450;2023-09-08T09:44:21;3.05;;;2.50;;
19291;SDS011;9779;51.756;7.450;2023-09-08T09:46:47;4.15;;;2.55;;
19291;SDS011;9779;51.756;7.450;2023-09-08T09:49:14;2.92;;;2.70;;
19291;SDS011;9779;51.756;7.450;2023-09-08T09:51:43;2.90;;;2.70;;
19291;SDS011;9779;51.756;7.450;2023-09-08T09:54:10;4.00;;;3.22;;
19291;SDS011;9779;51.756;7.450;2023-09-08T09:56:37;3.50;;;2.10;;
19291;SDS011;9779;51.756;7.450;2023-09-08T09:59:04;2.92;;;2.67;;
19291;SDS011;9779;51.756;7.450;2023-09-08T10:01:33;6.82;;;3.03;;
19291;SDS011;9779;51.756;7.450;2023-09-08T10:03:58;3.10;;;2.80;;
19291;SDS011;9779;51.756;7.450;2023-09-08T10:06:25;3.92;;;2.38;;
19291;SDS011;9779;51.756;7.450;2023-09-08T10:08:51;3.78;;;2.63;;
19291;SDS011;9779;51.756;7.450;2023-09-08T10:11:19;4.90;;;2.33;;
19291;SDS011;9779;51.756;7.450;2023-09-08T10:13:48;3.35;;;2.67;;
19291;SDS011;9779;51.756;7.450;2023-09-08T10:16:17;2.70;;;2.50;;
19291;SDS011;9779;51.756;7.450;2023-09-08T10:18:48;5.45;;;2.63;;
19291;SDS011;9779;51.756;7.450;2023-09-08T10:21:16;2.50;;;2.30;;
19291;SDS011;9779;51.756;7.450;2023-09-08T10:23:44;2.80;;;2.50;;
19291;SDS011;9779;51.756;7.450;2023-09-08T10:26:18;8.25;;;2.30;;
19291;SDS011;9779;51.756;7.450;2023-09-08T10:28:51;4.32;;;2.53;;
19291;SDS011;9779;51.756;7.450;2023-09-08T10:31:23;4.53;;;2.60;;
19291;SDS011;9779;51.756;7.450;2023-09-08T10:33:51;2.72;;;2.25;;
19291;SDS011;9779;51.756;7.450;2023-09-08T10:36:20;3.25;;;2.55;;
19291;SDS011;9779;51.756;7.450;2023-09-08T10:38:45;2.55;;;2.35;;
19291;SDS011;9779;51.756;7.450;2023-09-08T10:43:44;4.57;;;2.30;;
19291;SDS011;9779;51.756;7.450;2023-09-08T10:46:21;3.38;;;2.85;;
19291;SDS011;9779;51.756;7.450;2023-09-08T10:48:48;3.33;;;2.40;;
19291;SDS011;9779;51.756;7.450;2023-09-08T10:51:19;4.47;;;2.22;;
19291;SDS011;9779;51.756;7.450;2023-09-08T10:53:48;3.03;;;2.22;;
19291;SDS011;9779;51.756;7.450;2023-09-08T10:56:17;4.03;;;2.33;;
19291;SDS011;9779;51.756;7.450;2023-09-08T10:58:43;2.45;;;2.25;;
19291;SDS011;9779;51.756;7.450;2023-09-08T11:01:19;2.63;;;2.17;;
19291;SDS011;9779;51.756;7.450;2023-09-08T11:03:52;6.35;;;2.22;;
19291;SDS011;9779;51.756;7.450;2023-09-08T11:06:18;5.50;;;2.40;;
19291;SDS011;9779;51.756;7.450;2023-09-08T11:08:47;4.00;;;2.25;;
19291;SDS011;9779;51.756;7.450;2023-09-08T11:11:14;2.78;;;2.42;;
19291;SDS011;9779;51.756;7.450;2023-09-08T11:13:41;3.95;;;2.50;;
19291;SDS011;9779;51.756;7.450;2023-09-08T11:16:10;2.38;;;2.17;;
19291;SDS011;9779;51.756;7.450;2023-09-08T11:18:36;3.90;;;2.83;;
19291;SDS011;9779;51.756;7.450;2023-09-08T11:21:02;2.00;;;1.90;;
19291;SDS011;9779;51.756;7.450;2023-09-08T11:23:32;5.07;;;2.33;;
19291;SDS011;9779;51.756;7.450;2023-09-08T11:25:59;2.58;;;2.38;;
19291;SDS011;9779;51.756;7.450;2023-09-08T11:28:26;2.63;;;2.30;;
19291;SDS011;9779;51.756;7.450;2023-09-08T11:30:53;3.22;;;2.08;;
19291;SDS011;9779;51.756;7.450;2023-09-08T11:33:20;4.55;;;2.38;;
19291;SDS011;9779;51.756;7.450;2023-09-08T11:35:50;3.67;;;2.30;;
19291;SDS011;9779;51.756;7.450;2023-09-08T11:38:17;4.72;;;2.10;;
19291;SDS011;9779;51.756;7.450;2023-09-08T11:40:44;2.60;;;2.40;;
19291;SDS011;9779;51.756;7.450;2023-09-08T11:43:10;4.25;;;2.20;;
19291;SDS011;9779;51.756;7.450;2023-09-08T11:45:37;4.32;;;2.88;;
19291;SDS011;9779;51.756;7.450;2023-09-08T11:48:03;6.88;;;2.30;;
19291;SDS011;9779;51.756;7.450;2023-09-08T11:50:29;3.22;;;1.70;;
19291;SDS011;9779;51.756;7.450;2023-09-08T11:52:56;2.75;;;2.28;;
19291;SDS011;9779;51.756;7.450;2023-09-08T11:55:24;4.47;;;2.13;;
19291;SDS011;9779;51.756;7.450;2023-09-08T11:57:51;1.85;;;1.75;;
19291;SDS011;9779;51.756;7.450;2023-09-08T12:00:26;2.50;;;2.30;;
19291;SDS011;9779;51.756;7.450;2023-09-08T12:02:52;2.40;;;2.20;;
19291;SDS011;9779;51.756;7.450;2023-09-08T12:05:25;6.18;;;2.13;;
19291;SDS011;9779;51.756;7.450;2023-09-08T12:07:52;1.90;;;1.80;;
19291;SDS011;9779;51.756;7.450;2023-09-08T12:10:19;2.28;;;2.13;;
19291;SDS011;9779;51.756;7.450;2023-09-08T12:12:45;7.32;;;2.40;;
19291;SDS011;9779;51.756;7.450;2023-09-08T12:15:29;8.15;;;2.45;;
19291;SDS011;9779;51.756;7.450;2023-09-08T12:17:56;4.40;;;1.85;;
19291;SDS011;9779;51.756;7.450;2023-09-08T12:20:22;5.45;;;2.13;;
19291;SDS011;9779;51.756;7.450;2023-09-08T12:22:48;3.13;;;2.05;;
19291;SDS011;9779;51.756;7.450;2023-09-08T12:25:17;2.00;;;1.90;;
19291;SDS011;9779;51.756;7.450;2023-09-08T12:27:44;2.35;;;2.25;;
19291;SDS011;9779;51.756;7.450;2023-09-08T12:30:16;3.22;;;2.03;;
19291;SDS011;9779;51.756;7.450;2023-09-08T12:32:45;2.40;;;1.70;;
19291;SDS011;9779;51.756;7.450;2023-09-08T12:35:12;4.30;;;2.42;;
19291;SDS011;9779;51.756;7.450;2023-09-08T12:37:38;6.28;;;1.90;;
19291;SDS011;9779;51.756;7.450;2023-09-08T12:40:04;2.20;;;1.80;;
19291;SDS011;9779;51.756;7.450;2023-09-08T12:42:30;2.22;;;2.00;;
19291;SDS011;9779;51.756;7.450;2023-09-08T12:44:57;5.25;;;2.72;;
19291;SDS011;9779;51.756;7.450;2023-09-08T12:47:22;2.88;;;2.20;;
19291;SDS011;9779;51.756;7.450;2023-09-08T12:49:48;3.88;;;2.53;;
19291;SDS011;9779;51.756;7.450;2023-09-08T12:52:14;4.22;;;2.40;;
19291;SDS011;9779;51.756;7.450;2023-09-08T12:54:39;4.03;;;1.92;;
19291;SDS011;9779;51.756;7.450;2023-09-08T12:57:05;2.65;;;2.30;;
19291;SDS011;9779;51.756;7.450;2023-09-08T12:59:30;2.58;;;2.38;;
19291;SDS011;9779;51.756;7.450;2023-09-08T13:01:56;2.00;;;1.90;;
19291;SDS011;9779;51.756;7.450;2023-09-08T13:04:22;2.30;;;2.10;;
19291;SDS011;9779;51.756;7.450;2023-09-08T13:06:49;3.15;;;1.88;;
19291;SDS011;9779;51.756;7.450;2023-09-08T13:09:14;5.15;;;2.00;;
19291;SDS011;9779;51.756;7.450;2023-09-08T13:11:41;3.25;;;2.05;;
19291;SDS011;9779;51.756;7.450;2023-09-08T13:14:07;16.98;;;2.15;;
19291;SDS011;9779;51.756;7.450;2023-09-08T13:16:33;3.55;;;2.17;;
19291;SDS011;9779;51.756;7.450;2023-09-08T13:18:58;5.00;;;2.20;;
19291;SDS011;9779;51.756;7.450;2023-09-08T13:21:24;3.88;;;2.28;;
19291;SDS011;9779;51.756;7.450;2023-09-08T13:23:50;3.30;;;1.90;;
19291;SDS011;9779;51.756;7.450;2023-09-08T13:26:15;2.13;;;1.92;;
19291;SDS011;9779;51.756;7.450;2023-09-08T13:28:41;2.28;;;2.08;;
19291;SDS011;9779;51.756;7.450;2023-09-08T13:31:07;4.10;;;2.10;;
19291;SDS011;9779;51.756;7.450;2023-09-08T13:33:32;4.50;;;2.30;;
19291;SDS011;9779;51.756;7.450;2023-09-08T13:35:58;9.48;;;2.28;;
19291;SDS011;9779;51.756;7.450;2023-09-08T13:38:23;3.55;;;1.70;;
19291;SDS011;9779;51.756;7.450;2023-09-08T13:40:49;3.90;;;1.83;;
19291;SDS011;9779;51.756;7.450;2023-09-08T13:43:15;3.25;;;2.03;;
19291;SDS011;9779;51.756;7.450;2023-09-08T13:45:40;2.08;;;1.98;;
19291;SDS011;9779;51.756;7.450;2023-09-08T13:48:07;1.70;;;1.60;;
19291;SDS011;9779;51.756;7.450;2023-09-08T13:50:33;2.25;;;2.05;;
19291;SDS011;9779;51.756;7.450;2023-09-08T13:52:59;3.28;;;1.55;;
19291;SDS011;9779;51.756;7.450;2023-09-08T13:55:25;1.80;;;1.70;;
19291;SDS011;9779;51.756;7.450;2023-09-08T13:57:50;6.68;;;1.70;;
19291;SDS011;9779;51.756;7.450;2023-09-08T14:00:19;3.50;;;2.20;;
19291;SDS011;9779;51.756;7.450;2023-09-08T14:02:45;2.40;;;2.10;;
19291;SDS011;9779;51.756;7.450;2023-09-08T14:05:10;3.45;;;1.98;;
19291;SDS011;9779;51.756;7.450;2023-09-08T14:07:36;2.50;;;2.13;;
19291;SDS011;9779;51.756;7.450;2023-09-08T14:10:02;1.73;;;1.63;;
19291;SDS011;9779;51.756;7.450;2023-09-08T14:12:32;1.65;;;1.55;;
19291;SDS011;9779;51.756;7.450;2023-09-08T14:15:00;2.28;;;1.73;;
19291;SDS011;9779;51.756;7.450;2023-09-08T14:17:26;3.40;;;1.83;;
19291;SDS011;9779;51.756;7.450;2023-09-08T14:19:52;4.03;;;1.73;;
19291;SDS011;9779;51.756;7.450;2023-09-08T14:22:17;3.25;;;1.95;;
19291;SDS011;9779;51.756;7.450;2023-09-08T14:24:43;3.10;;;1.95;;
19291;SDS011;9779;51.756;7.450;2023-09-08T14:27:08;2.22;;;2.03;;
19291;SDS011;9779;51.756;7.450;2023-09-08T14:29:34;2.35;;;1.75;;
19291;SDS011;9779;51.756;7.450;2023-09-08T14:32:00;1.85;;;1.75;;
19291;SDS011;9779;51.756;7.450;2023-09-08T14:34:27;3.10;;;1.60;;
19291;SDS011;9779;51.756;7.450;2023-09-08T14:36:53;3.50;;;1.80;;
19291;SDS011;9779;51.756;7.450;2023-09-08T14:39:18;1.65;;;1.55;;
19291;SDS011;9779;51.756;7.450;2023-09-08T14:41:45;3.35;;;1.60;;
19291;SDS011;9779;51.756;7.450;2023-09-08T14:44:11;3.85;;;2.05;;
19291;SDS011;9779;51.756;7.450;2023-09-08T14:46:36;2.15;;;1.95;;
19291;SDS011;9779;51.756;7.450;2023-09-08T14:49:02;1.77;;;1.67;;
19291;SDS011;9779;51.756;7.450;2023-09-08T14:51:28;3.90;;;1.63;;
19291;SDS011;9779;51.756;7.450;2023-09-08T14:53:54;1.85;;;1.50;;
19291;SDS011;9779;51.756;7.450;2023-09-08T14:56:19;1.85;;;1.75;;
19291;SDS011;9779;51.756;7.450;2023-09-08T14:58:45;1.98;;;1.77;;
19291;SDS011;9779;51.756;7.450;2023-09-08T15:01:11;1.65;;;1.55;;
19291;SDS011;9779;51.756;7.450;2023-09-08T15:03:39;4.57;;;1.80;;